Time,TemperatureF,DewpointF,PressureIn,WindDirection,WindDirectionDegrees,WindSpeedMPH,WindSpeedGustMPH,Humidity,HourlyPrecipIn,Conditions,Clouds,dailyrainin,SoftwareType,DateUTC
2013-08-14 00:00:00,63.7,59.8,29.76,WSW,248,0.4,1.8,87,0.00,,,0.00,WUHU216HW,2013-08-14 04:00:00,
2013-08-14 00:01:00,63.7,59.8,29.76,WSW,248,0.4,1.8,87,0.00,,,0.00,WUHU216HW,2013-08-14 04:01:00,
2013-08-14 00:02:00,63.7,59.8,29.76,NW,315,3.1,3.1,87,0.00,,,0.00,WUHU216HW,2013-08-14 04:02:00,
2013-08-14 00:03:00,63.7,59.8,29.76,NW,315,3.1,3.1,87,0.00,,,0.00,WUHU216HW,2013-08-14 04:03:00,
2013-08-14 00:08:00,63.5,59.6,29.76,West,270,1.8,3.1,87,0.00,,,0.00,WUHU216HW,2013-08-14 04:08:00,
2013-08-14 00:13:00,63.5,59.6,29.76,SW,225,1.8,3.1,87,0.00,,,0.00,WUHU216HW,2013-08-14 04:13:00,
2013-08-14 00:18:00,63.5,59.6,29.76,NW,315,1.3,1.8,87,0.00,,,0.00,WUHU216HW,2013-08-14 04:18:00,
2013-08-14 00:23:00,63.3,59.4,29.76,WNW,293,1.3,1.8,87,0.00,,,0.00,WUHU216HW,2013-08-14 04:23:00,
2013-08-14 00:28:00,63.3,59.4,29.76,West,270,2.9,2.9,87,0.00,,,0.00,WUHU216HW,2013-08-14 04:28:00,
2013-08-14 00:33:00,63.2,59.3,29.77,WNW,293,3.1,3.4,87,0.00,,,0.00,WUHU216HW,2013-08-14 04:33:00,
2013-08-14 00:38:00,63.2,58.9,29.76,WSW,248,1.3,3.4,86,0.00,,,0.00,WUHU216HW,2013-08-14 04:38:00,
2013-08-14 00:43:00,63.0,58.7,29.76,NW,315,0.2,3.1,86,0.00,,,0.00,WUHU216HW,2013-08-14 04:43:00,
2013-08-14 00:48:00,63.0,58.4,29.77,SSW,203,0.9,2.2,85,0.00,,,0.00,WUHU216HW,2013-08-14 04:48:00,
2013-08-14 00:53:00,62.8,58.2,29.77,West,270,1.1,1.8,85,0.00,,,0.00,WUHU216HW,2013-08-14 04:53:00,
2013-08-14 00:58:00,62.6,58.0,29.77,WNW,293,1.8,1.8,85,0.00,,,0.00,WUHU216HW,2013-08-14 04:58:00,
2013-08-14 01:03:00,62.4,57.8,29.77,West,270,1.1,1.8,85,0.00,,,0.00,WUHU216HW,2013-08-14 05:03:00,
2013-08-14 01:08:00,62.3,57.4,29.77,North,0,0.2,1.8,84,0.00,,,0.00,WUHU216HW,2013-08-14 05:08:00,
2013-08-14 01:13:00,62.3,57.4,29.77,North,0,2.7,2.7,84,0.00,,,0.00,WUHU216HW,2013-08-14 05:13:00,
2013-08-14 01:18:00,61.9,57.0,29.77,NNE,23,0.2,2.7,84,0.00,,,0.00,WUHU216HW,2013-08-14 05:18:00,
2013-08-14 01:23:00,61.9,57.0,29.77,North,0,1.6,2.7,84,0.00,,,0.00,WUHU216HW,2013-08-14 05:23:00,
2013-08-14 01:28:00,61.5,56.0,29.77,NNW,338,0.9,1.6,82,0.00,,,0.00,WUHU216HW,2013-08-14 05:28:00,
2013-08-14 01:33:00,61.2,55.4,29.78,West,270,0.4,1.6,81,0.00,,,0.00,WUHU216HW,2013-08-14 05:33:00,
2013-08-14 01:38:00,60.8,55.0,29.77,WNW,293,1.6,2.5,81,0.00,,,0.00,WUHU216HW,2013-08-14 05:38:00,
2013-08-14 01:43:00,60.5,54.7,29.77,NNW,338,1.8,2.5,81,0.00,,,0.00,WUHU216HW,2013-08-14 05:43:00,
2013-08-14 01:48:00,60.3,54.5,29.77,NNW,338,2.5,3.6,81,0.00,,,0.00,WUHU216HW,2013-08-14 05:48:00,
2013-08-14 01:53:00,59.9,54.1,29.77,West,270,0.9,3.6,81,0.00,,,0.00,WUHU216HW,2013-08-14 05:53:00,
2013-08-14 01:58:00,59.7,53.6,29.78,NNW,338,1.8,3.6,80,0.00,,,0.00,WUHU216HW,2013-08-14 05:58:00,
2013-08-14 02:03:00,59.6,53.5,29.78,East,90,2.7,2.7,80,0.00,,,0.00,WUHU216HW,2013-08-14 06:03:00,
2013-08-14 02:08:00,59.6,53.5,29.78,NW,315,1.6,2.7,80,0.00,,,0.00,WUHU216HW,2013-08-14 06:08:00,
2013-08-14 02:13:00,59.4,53.3,29.78,NW,315,0.4,2.7,80,0.00,,,0.00,WUHU216HW,2013-08-14 06:13:00,
2013-08-14 02:18:00,59.2,53.4,29.78,NW,315,0.0,1.6,81,0.00,,,0.00,WUHU216HW,2013-08-14 06:18:00,
2013-08-14 02:23:00,59.0,53.2,29.78,WSW,248,0.7,1.3,81,0.00,,,0.00,WUHU216HW,2013-08-14 06:23:00,
2013-08-14 02:28:00,58.8,53.0,29.78,WSW,248,1.1,1.3,81,0.00,,,0.00,WUHU216HW,2013-08-14 06:28:00,
2013-08-14 02:33:00,58.8,53.4,29.78,WNW,293,0.9,1.3,82,0.00,,,0.00,WUHU216HW,2013-08-14 06:33:00,
2013-08-14 02:38:00,58.7,53.6,29.78,WNW,293,2.2,2.2,83,0.00,,,0.00,WUHU216HW,2013-08-14 06:38:00,
2013-08-14 02:43:00,58.5,53.4,29.78,NNW,338,2.5,2.5,83,0.00,,,0.00,WUHU216HW,2013-08-14 06:43:00,
2013-08-14 02:48:00,58.5,53.4,29.78,West,270,2.5,2.5,83,0.00,,,0.00,WUHU216HW,2013-08-14 06:48:00,
2013-08-14 02:53:00,58.1,53.0,29.78,WNW,293,1.1,2.5,83,0.00,,,0.00,WUHU216HW,2013-08-14 06:53:00,
2013-08-14 02:58:00,57.9,52.8,29.78,WNW,293,0.9,2.5,83,0.00,,,0.00,WUHU216HW,2013-08-14 06:58:00,
2013-08-14 03:03:00,57.8,52.7,29.78,WNW,293,1.1,1.6,83,0.00,,,0.00,WUHU216HW,2013-08-14 07:03:00,
2013-08-14 03:08:00,57.4,52.3,29.78,WNW,293,1.8,1.8,83,0.00,,,0.00,WUHU216HW,2013-08-14 07:08:00,
2013-08-14 03:13:00,57.4,52.3,29.78,West,270,1.6,2.2,83,0.00,,,0.00,WUHU216HW,2013-08-14 07:13:00,
2013-08-14 03:18:00,57.0,51.9,29.78,WSW,248,1.3,2.5,83,0.00,,,0.00,WUHU216HW,2013-08-14 07:18:00,
2013-08-14 03:23:00,56.9,51.8,29.77,SW,225,1.8,2.5,83,0.00,,,0.00,WUHU216HW,2013-08-14 07:23:00,
2013-08-14 03:28:00,56.7,51.6,29.78,WNW,293,1.1,2.5,83,0.00,,,0.00,WUHU216HW,2013-08-14 07:28:00,
2013-08-14 03:33:00,56.7,51.6,29.77,SW,225,1.8,2.5,83,0.00,,,0.00,WUHU216HW,2013-08-14 07:33:00,
2013-08-14 03:38:00,56.5,51.4,29.78,North,0,3.6,3.6,83,0.00,,,0.00,WUHU216HW,2013-08-14 07:38:00,
2013-08-14 03:43:00,56.3,51.2,29.78,North,0,1.8,3.6,83,0.00,,,0.00,WUHU216HW,2013-08-14 07:43:00,
2013-08-14 03:48:00,56.3,51.2,29.78,NNW,338,1.1,3.6,83,0.00,,,0.00,WUHU216HW,2013-08-14 07:48:00,
2013-08-14 03:53:00,56.1,51.0,29.77,SW,225,3.1,3.1,83,0.00,,,0.00,WUHU216HW,2013-08-14 07:53:00,
2013-08-14 03:58:00,56.0,50.9,29.77,NW,315,2.5,3.1,83,0.00,,,0.00,WUHU216HW,2013-08-14 07:58:00,
2013-08-14 04:03:00,55.8,50.4,29.77,NNW,338,2.9,4.3,82,0.00,,,0.00,WUHU216HW,2013-08-14 08:03:00,
2013-08-14 04:08:00,55.6,50.2,29.77,WSW,248,4.0,4.3,82,0.00,,,0.00,WUHU216HW,2013-08-14 08:08:00,
2013-08-14 04:13:00,55.6,50.2,29.77,NW,315,2.5,4.0,82,0.00,,,0.00,WUHU216HW,2013-08-14 08:13:00,
2013-08-14 04:18:00,55.4,50.0,29.77,WSW,248,1.3,4.0,82,0.00,,,0.00,WUHU216HW,2013-08-14 08:18:00,
2013-08-14 04:23:00,55.2,49.5,29.78,WNW,293,1.6,2.5,81,0.00,,,0.00,WUHU216HW,2013-08-14 08:23:00,
2013-08-14 04:28:00,55.1,49.4,29.78,NNW,338,2.7,2.7,81,0.00,,,0.00,WUHU216HW,2013-08-14 08:28:00,
2013-08-14 04:33:00,55.1,49.4,29.78,NNW,338,1.8,2.7,81,0.00,,,0.00,WUHU216HW,2013-08-14 08:33:00,
2013-08-14 04:38:00,54.7,49.0,29.78,NW,315,0.9,2.9,81,0.00,,,0.00,WUHU216HW,2013-08-14 08:38:00,
2013-08-14 04:43:00,54.5,48.8,29.78,WNW,293,1.1,2.9,81,0.00,,,0.00,WUHU216HW,2013-08-14 08:43:00,
2013-08-14 04:48:00,54.5,49.1,29.78,WNW,293,1.3,2.2,82,0.00,,,0.00,WUHU216HW,2013-08-14 08:48:00,
2013-08-14 04:53:00,54.3,48.6,29.78,SW,225,0.7,2.2,81,0.00,,,0.00,WUHU216HW,2013-08-14 08:53:00,
2013-08-14 04:58:00,54.2,48.5,29.78,WSW,248,0.9,2.2,81,0.00,,,0.00,WUHU216HW,2013-08-14 08:58:00,
2013-08-14 05:03:00,54.0,48.3,29.78,SW,225,1.8,2.2,81,0.00,,,0.00,WUHU216HW,2013-08-14 09:03:00,
2013-08-14 05:08:00,54.0,48.3,29.78,SSW,203,1.1,1.8,81,0.00,,,0.00,WUHU216HW,2013-08-14 09:08:00,
2013-08-14 05:13:00,53.8,48.1,29.78,SW,225,1.1,1.8,81,0.00,,,0.00,WUHU216HW,2013-08-14 09:13:00,
2013-08-14 05:18:00,53.6,48.3,29.78,WNW,293,1.1,2.0,82,0.00,,,0.00,WUHU216HW,2013-08-14 09:18:00,
2013-08-14 05:23:00,53.4,48.1,29.78,WNW,293,2.9,2.9,82,0.00,,,0.00,WUHU216HW,2013-08-14 09:23:00,
2013-08-14 05:28:00,53.3,48.0,29.78,WSW,248,1.8,2.9,82,0.00,,,0.00,WUHU216HW,2013-08-14 09:28:00,
2013-08-14 05:33:00,53.1,48.1,29.78,WSW,248,2.7,2.9,83,0.00,,,0.00,WUHU216HW,2013-08-14 09:33:00,
2013-08-14 05:38:00,53.1,48.1,29.79,West,270,0.4,2.7,83,0.00,,,0.00,WUHU216HW,2013-08-14 09:38:00,
2013-08-14 05:43:00,52.9,47.9,29.79,WNW,293,3.4,3.4,83,0.00,,,0.00,WUHU216HW,2013-08-14 09:43:00,
2013-08-14 05:48:00,52.7,47.7,29.79,WNW,293,2.2,3.4,83,0.00,,,0.00,WUHU216HW,2013-08-14 09:48:00,
2013-08-14 05:53:00,52.5,47.5,29.79,WSW,248,2.5,3.4,83,0.00,,,0.00,WUHU216HW,2013-08-14 09:53:00,
2013-08-14 05:58:00,52.4,47.4,29.79,NNW,338,4.0,4.0,83,0.00,,,0.00,WUHU216HW,2013-08-14 09:58:00,
2013-08-14 06:03:00,52.4,47.4,29.79,WNW,293,1.1,4.0,83,0.00,,,0.00,WUHU216HW,2013-08-14 10:03:00,
2013-08-14 06:08:00,52.4,47.1,29.80,NNW,338,1.1,4.0,82,0.00,,,0.00,WUHU216HW,2013-08-14 10:08:00,
2013-08-14 06:13:00,52.4,47.1,29.80,West,270,1.3,1.3,82,0.00,,,0.00,WUHU216HW,2013-08-14 10:13:00,
2013-08-14 06:18:00,52.4,47.1,29.80,NW,315,2.5,2.5,82,0.00,,,0.00,WUHU216HW,2013-08-14 10:18:00,
2013-08-14 06:23:00,52.4,47.1,29.80,NW,315,2.5,2.5,82,0.00,,,0.00,WUHU216HW,2013-08-14 10:23:00,
2013-08-14 06:28:00,52.2,46.9,29.80,NW,315,0.4,2.5,82,0.00,,,0.00,WUHU216HW,2013-08-14 10:28:00,
2013-08-14 06:33:00,52.0,46.7,29.80,WNW,293,2.9,3.4,82,0.00,,,0.00,WUHU216HW,2013-08-14 10:33:00,
2013-08-14 06:38:00,52.0,46.7,29.80,WSW,248,1.8,3.4,82,0.00,,,0.00,WUHU216HW,2013-08-14 10:38:00,
2013-08-14 06:43:00,51.8,46.5,29.81,NW,315,1.1,2.9,82,0.00,,,0.00,WUHU216HW,2013-08-14 10:43:00,
2013-08-14 06:48:00,51.8,46.5,29.81,WSW,248,1.8,2.0,82,0.00,,,0.00,WUHU216HW,2013-08-14 10:48:00,
2013-08-14 06:53:00,51.8,46.5,29.81,WNW,293,1.3,2.2,82,0.00,,,0.00,WUHU216HW,2013-08-14 10:53:00,
2013-08-14 06:58:00,51.6,46.3,29.81,NW,315,3.4,5.4,82,0.00,,,0.00,WUHU216HW,2013-08-14 10:58:00,
2013-08-14 07:03:00,51.8,46.5,29.81,WSW,248,1.8,5.4,82,0.00,,,0.00,WUHU216HW,2013-08-14 11:03:00,
2013-08-14 07:08:00,51.8,46.5,29.81,West,270,1.1,3.4,82,0.00,,,0.00,WUHU216HW,2013-08-14 11:08:00,
2013-08-14 07:13:00,51.8,46.5,29.81,WNW,293,1.8,2.7,82,0.00,,,0.00,WUHU216HW,2013-08-14 11:13:00,
2013-08-14 07:18:00,52.0,46.7,29.81,South,180,0.4,2.5,82,0.00,,,0.00,WUHU216HW,2013-08-14 11:18:00,
2013-08-14 07:23:00,52.0,46.4,29.81,West,270,1.1,1.6,81,0.00,,,0.00,WUHU216HW,2013-08-14 11:23:00,
2013-08-14 07:28:00,52.0,46.4,29.81,NW,315,2.7,2.7,81,0.00,,,0.00,WUHU216HW,2013-08-14 11:28:00,
2013-08-14 07:33:00,52.2,46.6,29.81,WSW,248,2.5,3.1,81,0.00,,,0.00,WUHU216HW,2013-08-14 11:33:00,
2013-08-14 07:38:00,52.4,46.8,29.81,WNW,293,1.3,3.1,81,0.00,,,0.00,WUHU216HW,2013-08-14 11:38:00,
2013-08-14 07:43:00,52.5,46.5,29.81,West,270,1.6,2.5,80,0.00,,,0.00,WUHU216HW,2013-08-14 11:43:00,
2013-08-14 07:48:00,52.7,46.4,29.81,West,270,2.0,2.9,79,0.00,,,0.00,WUHU216HW,2013-08-14 11:48:00,
2013-08-14 07:53:00,52.7,46.4,29.82,West,270,1.6,2.9,79,0.00,,,0.00,WUHU216HW,2013-08-14 11:53:00,
2013-08-14 07:58:00,53.1,46.5,29.82,WNW,293,0.7,2.5,78,0.00,,,0.00,WUHU216HW,2013-08-14 11:58:00,
2013-08-14 08:04:00,53.1,46.8,29.82,West,270,2.9,2.9,79,0.00,,,0.00,WUHU216HW,2013-08-14 12:04:00,
2013-08-14 08:09:00,53.4,46.8,29.82,West,270,3.8,4.7,78,0.00,,,0.00,WUHU216HW,2013-08-14 12:09:00,
2013-08-14 08:14:00,53.4,46.8,29.82,West,270,1.1,4.7,78,0.00,,,0.00,WUHU216HW,2013-08-14 12:14:00,
2013-08-14 08:19:00,53.8,47.2,29.82,WSW,248,2.0,3.8,78,0.00,,,0.00,WUHU216HW,2013-08-14 12:19:00,
2013-08-14 08:24:00,53.8,46.8,29.83,West,270,1.8,3.6,77,0.00,,,0.00,WUHU216HW,2013-08-14 12:24:00,
2013-08-14 08:29:00,54.2,46.9,29.83,NW,315,3.1,6.3,76,0.00,,,0.00,WUHU216HW,2013-08-14 12:29:00,
2013-08-14 08:34:00,54.2,46.9,29.83,WNW,293,1.8,6.3,76,0.00,,,0.00,WUHU216HW,2013-08-14 12:34:00,
2013-08-14 08:39:00,54.3,46.6,29.83,WNW,293,4.0,6.9,75,0.00,,,0.00,WUHU216HW,2013-08-14 12:39:00,
2013-08-14 08:44:00,54.5,46.8,29.83,WNW,293,3.4,6.9,75,0.00,,,0.00,WUHU216HW,2013-08-14 12:44:00,
2013-08-14 08:49:00,54.5,46.8,29.83,WNW,293,2.9,4.0,75,0.00,,,0.00,WUHU216HW,2013-08-14 12:49:00,
2013-08-14 08:54:00,54.5,46.8,29.83,West,270,6.9,6.9,75,0.00,,,0.00,WUHU216HW,2013-08-14 12:54:00,
2013-08-14 09:00:00,54.7,46.7,29.84,SW,225,9.4,9.4,74,0.00,,,0.00,WUHU216HW,2013-08-14 13:00:00,
2013-08-14 09:05:00,54.9,46.5,29.84,West,270,4.3,9.4,73,0.00,,,0.00,WUHU216HW,2013-08-14 13:05:00,
2013-08-14 09:10:00,55.1,46.7,29.84,WNW,293,7.6,9.4,73,0.00,,,0.00,WUHU216HW,2013-08-14 13:10:00,
2013-08-14 09:15:00,55.2,46.8,29.83,WNW,293,2.9,7.6,73,0.00,,,0.00,WUHU216HW,2013-08-14 13:15:00,
2013-08-14 09:20:00,55.4,47.0,29.83,WSW,248,5.6,7.4,73,0.00,,,0.00,WUHU216HW,2013-08-14 13:20:00,
2013-08-14 09:25:00,55.6,47.2,29.83,NNW,338,3.8,7.4,73,0.00,,,0.00,WUHU216HW,2013-08-14 13:25:00,
2013-08-14 09:30:00,55.8,46.7,29.83,West,270,3.6,7.4,71,0.00,,,0.00,WUHU216HW,2013-08-14 13:30:00,
2013-08-14 09:35:00,56.0,47.2,29.83,WSW,248,2.5,7.4,72,0.00,,,0.00,WUHU216HW,2013-08-14 13:35:00,
2013-08-14 09:40:00,56.3,47.5,29.83,NNW,338,4.0,6.9,72,0.00,,,0.00,WUHU216HW,2013-08-14 13:40:00,
2013-08-14 09:45:00,56.5,47.7,29.83,West,270,2.7,6.9,72,0.00,,,0.00,WUHU216HW,2013-08-14 13:45:00,
2013-08-14 09:50:00,56.7,47.5,29.84,NW,315,6.3,6.3,71,0.00,,,0.00,WUHU216HW,2013-08-14 13:50:00,
2013-08-14 09:55:00,56.7,47.1,29.83,WNW,293,3.1,6.9,70,0.00,,,0.00,WUHU216HW,2013-08-14 13:55:00,
2013-08-14 10:00:00,56.9,48.1,29.83,West,270,1.8,6.9,72,0.00,,,0.00,WUHU216HW,2013-08-14 14:00:00,
2013-08-14 10:06:00,57.0,47.4,29.84,West,270,4.9,6.9,70,0.00,,,0.00,WUHU216HW,2013-08-14 14:06:00,
2013-08-14 10:11:00,57.4,47.8,29.84,NW,315,2.0,6.9,70,0.00,,,0.00,WUHU216HW,2013-08-14 14:11:00,
2013-08-14 10:16:00,57.8,48.6,29.84,West,270,3.6,6.9,71,0.00,,,0.00,WUHU216HW,2013-08-14 14:16:00,
2013-08-14 10:21:00,57.9,47.9,29.84,West,270,2.5,5.4,69,0.00,,,0.00,WUHU216HW,2013-08-14 14:21:00,
2013-08-14 10:26:00,58.3,48.7,29.84,South,180,1.8,6.9,70,0.00,,,0.00,WUHU216HW,2013-08-14 14:26:00,
2013-08-14 10:31:00,58.5,48.5,29.84,SW,225,1.8,6.9,69,0.00,,,0.00,WUHU216HW,2013-08-14 14:31:00,
2013-08-14 10:36:00,58.8,48.8,29.84,WSW,248,1.3,7.6,69,0.00,,,0.00,WUHU216HW,2013-08-14 14:36:00,
2013-08-14 10:41:00,59.2,48.8,29.84,WNW,293,4.7,7.8,68,0.00,,,0.00,WUHU216HW,2013-08-14 14:41:00,
2013-08-14 10:46:00,59.2,48.8,29.84,WNW,293,2.5,7.8,68,0.00,,,0.00,WUHU216HW,2013-08-14 14:46:00,
2013-08-14 10:51:00,59.2,48.4,29.84,WNW,293,3.4,7.2,67,0.00,,,0.00,WUHU216HW,2013-08-14 14:51:00,
2013-08-14 10:56:00,59.4,48.6,29.84,NNW,338,3.6,6.9,67,0.00,,,0.00,WUHU216HW,2013-08-14 14:56:00,
2013-08-14 11:01:00,59.6,49.2,29.84,WNW,293,2.2,5.8,68,0.00,,,0.00,WUHU216HW,2013-08-14 15:01:00,
2013-08-14 11:07:00,60.3,49.0,29.84,SSW,203,8.9,8.9,66,0.00,,,0.00,WUHU216HW,2013-08-14 15:07:00,
2013-08-14 11:12:00,60.3,48.6,29.85,NW,315,1.8,11.2,65,0.00,,,0.00,WUHU216HW,2013-08-14 15:12:00,
2013-08-14 11:17:00,60.6,48.9,29.85,West,270,4.9,11.2,65,0.00,,,0.00,WUHU216HW,2013-08-14 15:17:00,
2013-08-14 11:22:00,60.8,49.9,29.85,WNW,293,2.7,7.8,67,0.00,,,0.00,WUHU216HW,2013-08-14 15:22:00,
2013-08-14 11:27:00,61.0,49.7,29.85,WNW,293,0.7,4.5,66,0.00,,,0.00,WUHU216HW,2013-08-14 15:27:00,
2013-08-14 11:32:00,61.4,50.1,29.85,NW,315,6.5,6.5,66,0.00,,,0.00,WUHU216HW,2013-08-14 15:32:00,
2013-08-14 11:37:00,61.7,50.4,29.86,West,270,3.6,6.5,66,0.00,,,0.00,WUHU216HW,2013-08-14 15:37:00,
2013-08-14 11:42:00,62.1,49.9,29.86,WNW,293,3.6,4.3,64,0.00,,,0.00,WUHU216HW,2013-08-14 15:42:00,
2013-08-14 11:47:00,62.3,50.1,29.85,West,270,6.7,6.7,64,0.00,,,0.00,WUHU216HW,2013-08-14 15:47:00,
2013-08-14 11:54:00,62.6,50.4,29.86,WNW,293,4.0,6.7,64,0.00,,,0.00,WUHU216HW,2013-08-14 15:54:00,
2013-08-14 11:59:00,62.6,49.1,29.86,West,270,3.4,7.6,61,0.00,,,0.00,WUHU216HW,2013-08-14 15:59:00,
2013-08-14 12:04:00,62.4,49.4,29.86,WSW,248,4.9,7.6,62,0.00,,,0.00,WUHU216HW,2013-08-14 16:04:00,
2013-08-14 12:09:00,62.4,49.8,29.86,SW,225,2.2,5.1,63,0.00,,,0.00,WUHU216HW,2013-08-14 16:09:00,
2013-08-14 12:14:00,63.0,50.8,29.86,West,270,2.7,4.9,64,0.00,,,0.00,WUHU216HW,2013-08-14 16:14:00,
2013-08-14 12:19:00,63.2,50.1,29.86,NW,315,4.5,6.9,62,0.00,,,0.00,WUHU216HW,2013-08-14 16:19:00,
2013-08-14 12:25:00,63.2,50.1,29.86,NW,315,2.5,6.9,62,0.00,,,0.00,WUHU216HW,2013-08-14 16:25:00,
2013-08-14 12:30:00,63.5,50.4,29.86,West,270,9.8,9.8,62,0.00,,,0.00,WUHU216HW,2013-08-14 16:30:00,
2013-08-14 12:35:00,63.5,50.0,29.86,WSW,248,3.6,9.8,61,0.00,,,0.00,WUHU216HW,2013-08-14 16:35:00,
2013-08-14 12:40:00,63.7,51.0,29.86,West,270,2.5,9.8,63,0.00,,,0.00,WUHU216HW,2013-08-14 16:40:00,
2013-08-14 12:45:00,64.1,51.4,29.86,NNW,338,2.7,5.1,63,0.00,,,0.00,WUHU216HW,2013-08-14 16:45:00,
2013-08-14 12:50:00,64.1,50.5,29.86,NW,315,2.5,5.1,61,0.00,,,0.00,WUHU216HW,2013-08-14 16:50:00,
2013-08-14 12:56:00,64.2,50.6,29.86,West,270,5.4,6.7,61,0.00,,,0.00,WUHU216HW,2013-08-14 16:56:00,
2013-08-14 13:01:00,64.4,50.8,29.86,NNW,338,3.8,8.7,61,0.00,,,0.00,WUHU216HW,2013-08-14 17:01:00,
2013-08-14 13:06:00,64.4,50.4,29.86,West,270,6.7,8.7,60,0.00,,,0.00,WUHU216HW,2013-08-14 17:06:00,
2013-08-14 13:12:00,64.6,50.1,29.86,WNW,293,4.7,8.1,59,0.00,,,0.00,WUHU216HW,2013-08-14 17:12:00,
2013-08-14 13:17:00,64.6,50.1,29.87,WNW,293,4.5,6.9,59,0.00,,,0.00,WUHU216HW,2013-08-14 17:17:00,
2013-08-14 13:22:00,64.8,50.7,29.86,WNW,293,3.1,6.9,60,0.00,,,0.00,WUHU216HW,2013-08-14 17:22:00,
2013-08-14 13:28:00,65.0,50.9,29.86,West,270,3.1,7.8,60,0.00,,,0.00,WUHU216HW,2013-08-14 17:28:00,
2013-08-14 13:33:00,65.0,51.4,29.86,NW,315,2.2,9.2,61,0.00,,,0.00,WUHU216HW,2013-08-14 17:33:00,
2013-08-14 13:38:00,65.1,51.0,29.87,West,270,2.5,9.2,60,0.00,,,0.00,WUHU216HW,2013-08-14 17:38:00,
2013-08-14 13:43:00,65.0,50.9,29.87,WNW,293,2.7,5.1,60,0.00,,,0.00,WUHU216HW,2013-08-14 17:43:00,
2013-08-14 13:48:00,65.3,50.3,29.87,NNW,338,8.9,8.9,58,0.00,,,0.00,WUHU216HW,2013-08-14 17:48:00,
2013-08-14 13:53:00,65.3,50.3,29.87,WNW,293,5.1,9.2,58,0.00,,,0.00,WUHU216HW,2013-08-14 17:53:00,
2013-08-14 13:58:00,65.3,50.8,29.87,NNW,338,4.0,9.2,59,0.00,,,0.00,WUHU216HW,2013-08-14 17:58:00,
2013-08-14 14:04:00,65.3,51.2,29.88,West,270,9.2,9.2,60,0.00,,,0.00,WUHU216HW,2013-08-14 18:04:00,
2013-08-14 14:09:00,65.3,50.8,29.88,West,270,7.8,9.2,59,0.00,,,0.00,WUHU216HW,2013-08-14 18:09:00,
2013-08-14 14:14:00,65.1,51.0,29.88,North,0,3.6,7.8,60,0.00,,,0.00,WUHU216HW,2013-08-14 18:14:00,
2013-08-14 14:19:00,65.3,50.8,29.88,West,270,4.3,7.8,59,0.00,,,0.00,WUHU216HW,2013-08-14 18:19:00,
2013-08-14 14:25:00,65.1,50.6,29.88,SSE,158,6.0,7.8,59,0.00,,,0.00,WUHU216HW,2013-08-14 18:25:00,
2013-08-14 14:30:00,65.1,51.0,29.88,North,0,1.8,7.2,60,0.00,,,0.00,WUHU216HW,2013-08-14 18:30:00,
2013-08-14 14:35:00,65.3,51.2,29.88,WSW,248,4.0,7.8,60,0.00,,,0.00,WUHU216HW,2013-08-14 18:35:00,
2013-08-14 14:40:00,65.3,50.8,29.88,WNW,293,3.4,7.8,59,0.00,,,0.00,WUHU216HW,2013-08-14 18:40:00,
2013-08-14 14:45:00,65.3,51.2,29.87,West,270,2.0,6.9,60,0.00,,,0.00,WUHU216HW,2013-08-14 18:45:00,
2013-08-14 14:51:00,65.9,51.3,29.87,West,270,4.9,6.3,59,0.00,,,0.00,WUHU216HW,2013-08-14 18:51:00,
2013-08-14 14:57:00,65.9,51.3,29.87,WNW,293,5.4,9.8,59,0.00,,,0.00,WUHU216HW,2013-08-14 18:57:00,
2013-08-14 15:02:00,66.0,51.4,29.87,WNW,293,4.0,9.8,59,0.00,,,0.00,WUHU216HW,2013-08-14 19:02:00,
2013-08-14 15:07:00,66.2,51.6,29.87,West,270,3.1,8.7,59,0.00,,,0.00,WUHU216HW,2013-08-14 19:07:00,
2013-08-14 15:12:00,66.2,52.1,29.87,NNW,338,1.8,8.1,60,0.00,,,0.00,WUHU216HW,2013-08-14 19:12:00,
2013-08-14 15:17:00,66.4,51.3,29.87,NW,315,2.9,6.9,58,0.00,,,0.00,WUHU216HW,2013-08-14 19:17:00,
2013-08-14 15:22:00,66.4,51.8,29.87,WNW,293,4.3,6.9,59,0.00,,,0.00,WUHU216HW,2013-08-14 19:22:00,
2013-08-14 15:27:00,66.4,52.3,29.87,SSE,158,5.8,9.2,60,0.00,,,0.00,WUHU216HW,2013-08-14 19:27:00,
2013-08-14 15:33:00,66.6,52.0,29.87,NW,315,6.3,7.6,59,0.00,,,0.00,WUHU216HW,2013-08-14 19:33:00,
2013-08-14 15:38:00,66.6,52.0,29.87,SW,225,2.5,6.7,59,0.00,,,0.00,WUHU216HW,2013-08-14 19:38:00,
2013-08-14 15:43:00,67.1,52.0,29.87,NW,315,3.6,8.5,58,0.00,,,0.00,WUHU216HW,2013-08-14 19:43:00,
2013-08-14 15:48:00,67.1,52.4,29.87,SW,225,2.5,8.5,59,0.00,,,0.00,WUHU216HW,2013-08-14 19:48:00,
2013-08-14 15:53:00,67.5,52.4,29.87,West,270,7.2,8.3,58,0.00,,,0.00,WUHU216HW,2013-08-14 19:53:00,
2013-08-14 15:58:00,67.5,51.9,29.87,WNW,293,7.4,8.3,57,0.00,,,0.00,WUHU216HW,2013-08-14 19:58:00,
2013-08-14 16:03:00,67.8,53.1,29.87,West,270,4.7,7.6,59,0.00,,,0.00,WUHU216HW,2013-08-14 20:03:00,
2013-08-14 16:08:00,67.8,52.2,29.87,NW,315,1.3,7.4,57,0.00,,,0.00,WUHU216HW,2013-08-14 20:08:00,
2013-08-14 16:14:00,67.7,52.5,29.87,WSW,248,2.9,4.7,58,0.00,,,0.00,WUHU216HW,2013-08-14 20:14:00,
2013-08-14 16:19:00,67.5,52.4,29.87,WSW,248,2.5,4.7,58,0.00,,,0.00,WUHU216HW,2013-08-14 20:19:00,
2013-08-14 16:24:00,67.5,52.8,29.88,WNW,293,2.0,2.9,59,0.00,,,0.00,WUHU216HW,2013-08-14 20:24:00,
2013-08-14 16:29:00,67.7,53.0,29.87,WNW,293,7.8,7.8,59,0.00,,,0.00,WUHU216HW,2013-08-14 20:29:00,
2013-08-14 16:34:00,68.2,52.0,29.87,West,270,6.0,7.8,56,0.00,,,0.00,WUHU216HW,2013-08-14 20:34:00,
2013-08-14 16:39:00,68.0,51.8,29.88,West,270,6.0,7.8,56,0.00,,,0.00,WUHU216HW,2013-08-14 20:39:00,
2013-08-14 16:44:00,68.0,51.8,29.88,SSE,158,3.8,6.0,56,0.00,,,0.00,WUHU216HW,2013-08-14 20:44:00,
2013-08-14 16:49:00,68.2,52.0,29.88,West,270,1.6,6.0,56,0.00,,,0.00,WUHU216HW,2013-08-14 20:49:00,
2013-08-14 16:54:00,68.6,52.4,29.88,West,270,4.0,5.4,56,0.00,,,0.00,WUHU216HW,2013-08-14 20:54:00,
2013-08-14 16:59:00,68.7,52.5,29.88,West,270,6.9,6.9,56,0.00,,,0.00,WUHU216HW,2013-08-14 20:59:00,
2013-08-14 17:04:00,68.7,53.0,29.88,WNW,293,2.9,6.9,57,0.00,,,0.00,WUHU216HW,2013-08-14 21:04:00,
2013-08-14 17:09:00,68.7,53.0,29.89,WNW,293,5.4,6.9,57,0.00,,,0.00,WUHU216HW,2013-08-14 21:09:00,
2013-08-14 17:14:00,68.6,53.4,29.89,NNW,338,1.1,5.4,58,0.00,,,0.00,WUHU216HW,2013-08-14 21:14:00,
2013-08-14 17:19:00,68.9,53.7,29.89,WNW,293,0.9,5.4,58,0.00,,,0.00,WUHU216HW,2013-08-14 21:19:00,
2013-08-14 17:25:00,69.3,53.6,29.89,SW,225,3.6,3.6,57,0.00,,,0.00,WUHU216HW,2013-08-14 21:25:00,
2013-08-14 17:30:00,70.2,54.9,29.89,SSW,203,2.0,3.8,58,0.00,,,0.00,WUHU216HW,2013-08-14 21:30:00,
2013-08-14 17:35:00,70.7,52.8,29.89,SW,225,4.3,5.6,53,0.00,,,0.00,WUHU216HW,2013-08-14 21:35:00,
2013-08-14 17:40:00,70.5,53.2,29.89,NW,315,7.4,7.4,54,0.00,,,0.00,WUHU216HW,2013-08-14 21:40:00,
2013-08-14 17:45:00,70.4,53.1,29.89,WSW,248,4.0,7.4,54,0.00,,,0.00,WUHU216HW,2013-08-14 21:45:00,
2013-08-14 17:50:00,70.2,52.9,29.90,WNW,293,6.7,6.7,54,0.00,,,0.00,WUHU216HW,2013-08-14 21:50:00,
2013-08-14 17:55:00,70.2,53.9,29.90,NNW,338,4.7,6.7,56,0.00,,,0.00,WUHU216HW,2013-08-14 21:55:00,
2013-08-14 18:00:00,70.9,54.1,29.90,West,270,2.5,6.7,55,0.00,,,0.00,WUHU216HW,2013-08-14 22:00:00,
2013-08-14 18:05:00,71.4,53.5,29.90,WNW,293,5.6,5.6,53,0.00,,,0.00,WUHU216HW,2013-08-14 22:05:00,
2013-08-14 18:10:00,71.4,53.5,29.90,WSW,248,5.4,5.8,53,0.00,,,0.00,WUHU216HW,2013-08-14 22:10:00,
2013-08-14 18:15:00,72.2,54.8,29.90,WSW,248,1.1,5.8,54,0.00,,,0.00,WUHU216HW,2013-08-14 22:15:00,
2013-08-14 18:20:00,73.1,56.1,29.90,West,270,1.6,4.5,55,0.00,,,0.00,WUHU216HW,2013-08-14 22:20:00,
2013-08-14 18:25:00,74.1,54.9,29.90,South,180,4.5,5.1,51,0.00,,,0.00,WUHU216HW,2013-08-14 22:25:00,
2013-08-14 18:30:00,74.3,55.1,29.90,WSW,248,1.6,5.1,51,0.00,,,0.00,WUHU216HW,2013-08-14 22:30:00,
2013-08-14 18:35:00,74.9,55.1,29.91,WSW,248,4.9,4.9,50,0.00,,,0.00,WUHU216HW,2013-08-14 22:35:00,
2013-08-14 18:40:00,74.9,53.3,29.91,West,270,2.5,4.9,47,0.00,,,0.00,WUHU216HW,2013-08-14 22:40:00,
2013-08-14 18:46:00,73.1,52.9,29.91,WNW,293,1.1,5.6,49,0.00,,,0.00,WUHU216HW,2013-08-14 22:46:00,
2013-08-14 18:51:00,73.1,52.9,29.91,NW,315,2.0,5.6,49,0.00,,,0.00,WUHU216HW,2013-08-14 22:51:00,
2013-08-14 18:56:00,72.2,52.6,29.91,West,270,1.3,4.9,50,0.00,,,0.00,WUHU216HW,2013-08-14 22:56:00,
2013-08-14 19:01:00,71.3,51.8,29.92,NW,315,1.8,6.3,50,0.00,,,0.00,WUHU216HW,2013-08-14 23:01:00,
2013-08-14 19:06:00,70.4,51.5,29.92,SW,225,3.6,6.5,51,0.00,,,0.00,WUHU216HW,2013-08-14 23:06:00,
2013-08-14 19:11:00,70.0,51.7,29.92,SW,225,4.0,6.5,52,0.00,,,0.00,WUHU216HW,2013-08-14 23:11:00,
2013-08-14 19:16:00,70.5,51.6,29.92,NW,315,1.8,5.1,51,0.00,,,0.00,WUHU216HW,2013-08-14 23:16:00,
2013-08-14 19:21:00,70.4,51.5,29.92,NW,315,0.9,5.1,51,0.00,,,0.00,WUHU216HW,2013-08-14 23:21:00,
2013-08-14 19:27:00,69.1,50.8,29.93,West,270,1.8,4.0,52,0.00,,,0.00,WUHU216HW,2013-08-14 23:27:00,
2013-08-14 19:32:00,68.2,50.5,29.93,NW,315,1.8,4.0,53,0.00,,,0.00,WUHU216HW,2013-08-14 23:32:00,
2013-08-14 19:37:00,67.3,49.7,29.93,West,270,1.1,3.4,53,0.00,,,0.00,WUHU216HW,2013-08-14 23:37:00,
2013-08-14 19:42:00,66.2,49.7,29.93,WNW,293,2.2,3.4,55,0.00,,,0.00,WUHU216HW,2013-08-14 23:42:00,
2013-08-14 19:47:00,65.7,49.7,29.93,North,0,2.5,3.4,56,0.00,,,0.00,WUHU216HW,2013-08-14 23:47:00,
2013-08-14 19:52:00,65.1,49.1,29.93,NW,315,1.8,3.1,56,0.00,,,0.00,WUHU216HW,2013-08-14 23:52:00,
2013-08-14 19:57:00,64.8,49.3,29.94,NW,315,0.4,3.4,57,0.00,,,0.00,WUHU216HW,2013-08-14 23:57:00,
2013-08-14 20:02:00,64.2,49.2,29.94,WNW,293,0.7,3.4,58,0.00,,,0.00,WUHU216HW,2013-08-15 00:02:00,
2013-08-14 20:07:00,63.9,49.4,29.94,SW,225,1.8,2.5,59,0.00,,,0.00,WUHU216HW,2013-08-15 00:07:00,
2013-08-14 20:12:00,63.3,48.9,29.94,NW,315,0.4,2.7,59,0.00,,,0.00,WUHU216HW,2013-08-15 00:12:00,
2013-08-14 20:18:00,63.2,48.8,29.95,WSW,248,1.8,1.8,59,0.00,,,0.00,WUHU216HW,2013-08-15 00:18:00,
2013-08-14 20:23:00,63.0,49.0,29.95,WNW,293,0.9,1.8,60,0.00,,,0.00,WUHU216HW,2013-08-15 00:23:00,
2013-08-14 20:28:00,62.6,49.1,29.95,WNW,293,1.3,2.7,61,0.00,,,0.00,WUHU216HW,2013-08-15 00:28:00,
2013-08-14 20:33:00,62.3,48.8,29.95,WSW,248,1.8,4.7,61,0.00,,,0.00,WUHU216HW,2013-08-15 00:33:00,
2013-08-14 20:38:00,61.9,48.9,29.95,West,270,2.5,4.7,62,0.00,,,0.00,WUHU216HW,2013-08-15 00:38:00,
2013-08-14 20:43:00,61.7,48.7,29.95,West,270,1.1,4.0,62,0.00,,,0.00,WUHU216HW,2013-08-15 00:43:00,
2013-08-14 20:48:00,61.4,48.4,29.96,WSW,248,2.9,4.0,62,0.00,,,0.00,WUHU216HW,2013-08-15 00:48:00,
2013-08-14 20:53:00,61.2,48.7,29.96,West,270,1.8,3.6,63,0.00,,,0.00,WUHU216HW,2013-08-15 00:53:00,
2013-08-14 20:58:00,61.0,48.5,29.97,WNW,293,0.4,3.6,63,0.00,,,0.00,WUHU216HW,2013-08-15 00:58:00,
2013-08-14 21:03:00,60.8,48.7,29.97,WNW,293,1.3,2.5,64,0.00,,,0.00,WUHU216HW,2013-08-15 01:03:00,
2013-08-14 21:08:00,60.6,48.5,29.97,NW,315,2.7,2.7,64,0.00,,,0.00,WUHU216HW,2013-08-15 01:08:00,
2013-08-14 21:13:00,60.5,48.4,29.97,WNW,293,1.1,2.7,64,0.00,,,0.00,WUHU216HW,2013-08-15 01:13:00,
2013-08-14 21:18:00,60.3,48.2,29.97,South,180,0.4,2.5,64,0.00,,,0.00,WUHU216HW,2013-08-15 01:18:00,
2013-08-14 21:24:00,60.1,48.4,29.98,WNW,293,0.7,2.5,65,0.00,,,0.00,WUHU216HW,2013-08-15 01:24:00,
2013-08-14 21:29:00,59.9,48.3,29.98,West,270,1.1,2.7,65,0.00,,,0.00,WUHU216HW,2013-08-15 01:29:00,
2013-08-14 21:34:00,59.6,48.4,29.99,West,270,1.6,3.1,66,0.00,,,0.00,WUHU216HW,2013-08-15 01:34:00,
2013-08-14 21:39:00,59.6,48.4,29.99,WSW,248,2.0,3.1,66,0.00,,,0.00,WUHU216HW,2013-08-15 01:39:00,
2013-08-14 21:44:00,59.4,48.2,29.99,West,270,0.7,3.1,66,0.00,,,0.00,WUHU216HW,2013-08-15 01:44:00,
2013-08-14 21:49:00,59.2,48.0,29.99,WNW,293,0.7,3.1,66,0.00,,,0.00,WUHU216HW,2013-08-15 01:49:00,
2013-08-14 21:54:00,59.0,47.4,29.99,NW,315,0.4,2.2,65,0.00,,,0.00,WUHU216HW,2013-08-15 01:54:00,
2013-08-14 21:59:00,59.0,47.4,29.99,ENE,68,0.7,2.7,65,0.00,,,0.00,WUHU216HW,2013-08-15 01:59:00,
2013-08-14 22:04:00,58.8,47.6,30.00,NW,315,1.1,2.7,66,0.00,,,0.00,WUHU216HW,2013-08-15 02:04:00,
2013-08-14 22:09:00,58.8,47.6,30.00,WNW,293,2.5,2.5,66,0.00,,,0.00,WUHU216HW,2013-08-15 02:09:00,
2013-08-14 22:15:00,58.7,47.5,30.00,West,270,1.1,2.5,66,0.00,,,0.00,WUHU216HW,2013-08-15 02:15:00,
2013-08-14 23:00:00,57.8,47.0,30.01,WNW,293,1.8,1.8,67,0.00,,,0.00,WUHU216HW,2013-08-15 03:00:00,
2013-08-14 23:05:00,57.8,47.0,30.01,West,270,0.4,1.8,67,0.00,,,0.00,WUHU216HW,2013-08-15 03:05:00,
2013-08-14 23:10:00,57.8,47.0,30.01,West,270,0.4,1.8,67,0.00,,,0.00,WUHU216HW,2013-08-15 03:10:00,
2013-08-14 23:30:00,57.0,46.7,30.02,West,270,0.4,0.4,68,0.00,,,0.00,WUHU216HW,2013-08-15 03:30:00,
2013-08-14 23:35:00,57.0,46.7,30.02,West,270,0.4,0.4,68,0.00,,,0.00,WUHU216HW,2013-08-15 03:35:00,